Time;durP1;ratioP1;P1;durP2;ratioP2;P2;SDS_P1;SDS_P2;PMS_P1;PMS_P2;Temp;Humidity;BMP_temperature;BMP_pressure;BME280_temperature;BME280_humidity;BME280_pressure;Samples;Min_cycle;Max_cycle;Signal;HPM_P1;HPM_P2
2021/12/20 00:00:13;;;;;;;7.28;4.60;;;;;;;-0.90;82.79;98348.56;5111736;28;20479;-75
2021/12/20 00:02:39;;;;;;;9.73;5.03;;;;;;;-0.86;82.85;98348.09;5107352;27;20131;-74
2021/12/20 00:05:05;;;;;;;8.50;4.13;;;;;;;-0.84;82.84;98349.53;5094629;27;20073;-76
2021/12/20 00:07:31;;;;;;;7.60;3.92;;;;;;;-0.88;82.80;98348.34;5095602;28;20035;-76
2021/12/20 00:09:56;;;;;;;10.25;4.35;;;;;;;-0.90;82.93;98350.44;5114645;27;20023;-76
2021/12/20 00:12:22;;;;;;;8.15;4.40;;;;;;;-0.91;82.61;98351.47;5112213;28;20024;-76
2021/12/20 00:14:47;;;;;;;10.10;4.68;;;;;;;-0.88;83.23;98364.50;5112054;28;20429;-76
2021/12/20 00:17:13;;;;;;;10.38;5.32;;;;;;;-0.84;83.31;98368.38;5111861;28;20020;-76
2021/12/20 00:19:38;;;;;;;8.73;4.22;;;;;;;-0.77;83.47;98360.22;5111382;28;20023;-76
2021/12/20 00:22:04;;;;;;;10.73;4.45;;;;;;;-0.70;83.34;98368.22;5111465;28;20210;-76
2021/12/20 00:24:29;;;;;;;9.38;4.40;;;;;;;-0.63;83.27;98364.44;5110712;28;20034;-76
2021/12/20 00:26:54;;;;;;;9.45;4.68;;;;;;;-0.56;83.83;98358.09;5110972;28;20132;-76
2021/12/20 00:29:20;;;;;;;12.57;5.60;;;;;;;-0.52;83.64;98360.13;5111405;28;20016;-77
2021/12/20 00:31:45;;;;;;;10.75;4.97;;;;;;;-0.41;83.58;98365.81;5093394;28;20539;-77
2021/12/20 00:34:11;;;;;;;10.30;4.15;;;;;;;-0.39;83.29;98361.84;5112065;28;20034;-76
2021/12/20 00:36:36;;;;;;;10.25;4.53;;;;;;;-0.41;83.28;98363.13;5111598;28;20020;-76
2021/12/20 00:41:47;;;;;;;17.42;8.40;;;;;;;-0.41;83.33;98363.13;5111268;28;20100;-78
2021/12/20 00:44:12;;;;;;;11.50;4.40;;;;;;;-0.45;83.25;98362.75;5111892;28;20032;-77
2021/12/20 00:46:37;;;;;;;8.23;3.97;;;;;;;-0.50;83.50;98367.97;5093341;28;20129;-78
2021/12/20 00:49:03;;;;;;;9.50;3.70;;;;;;;-0.52;83.12;98379.00;5111404;28;20024;-78
2021/12/20 00:51:28;;;;;;;7.65;3.78;;;;;;;-0.53;83.20;98379.22;5111387;28;20027;-77
2021/12/20 00:53:54;;;;;;;8.30;4.10;;;;;;;-0.53;83.26;98369.28;5093013;28;20028;-78
2021/12/20 00:56:19;;;;;;;9.35;3.92;;;;;;;-0.50;83.10;98367.97;5111336;28;20103;-77
2021/12/20 00:58:45;;;;;;;12.18;5.00;;;;;;;-0.54;83.06;98383.78;5111304;28;20447;-77
2021/12/20 01:01:11;;;;;;;10.00;4.65;;;;;;;-0.55;83.61;98370.53;5111181;28;20032;-77
2021/12/20 01:03:36;;;;;;;9.73;4.85;;;;;;;-0.54;83.07;98366.78;5111134;28;20142;-77
2021/12/20 01:06:02;;;;;;;8.45;4.40;;;;;;;-0.62;83.09;98374.16;5111650;28;20035;-77
2021/12/20 01:08:33;;;;;;;10.52;4.15;;;;;;;-0.65;83.37;98368.38;5111221;28;20035;-78
2021/12/20 01:11:00;;;;;;;8.63;4.20;;;;;;;-0.70;83.27;98371.75;5110834;28;20084;-77
2021/12/20 01:13:28;;;;;;;7.97;3.97;;;;;;;-0.73;83.49;98368.66;5111331;28;20111;-77
2021/12/20 01:15:57;;;;;;;11.95;5.03;;;;;;;-0.71;83.57;98366.56;5111376;28;20036;-77
2021/12/20 01:18:23;;;;;;;8.70;4.35;;;;;;;-0.69;83.45;98380.63;5092999;28;20099;-76
2021/12/20 01:20:49;;;;;;;11.38;5.28;;;;;;;-0.67;83.66;98374.00;5110863;28;20123;-78
2021/12/20 01:23:15;;;;;;;10.38;4.78;;;;;;;-0.65;83.53;98382.69;5110984;28;20112;-77
2021/12/20 01:25:41;;;;;;;10.15;4.70;;;;;;;-0.63;83.43;98379.75;5111448;28;20543;-77
2021/12/20 01:28:07;;;;;;;13.40;5.13;;;;;;;-0.64;83.71;98380.78;5111122;28;20032;-78
2021/12/20 01:30:34;;;;;;;10.70;5.03;;;;;;;-0.64;83.65;98378.94;5110872;28;20019;-77
2021/12/20 01:32:59;;;;;;;10.18;5.22;;;;;;;-0.67;83.73;98379.38;5111239;28;20028;-77
2021/12/20 01:35:26;;;;;;;11.63;5.03;;;;;;;-0.65;83.77;98388.06;5111301;28;20127;-77
2021/12/20 01:37:53;;;;;;;7.93;3.88;;;;;;;-0.60;83.64;98392.75;5110754;28;20020;-77
2021/12/20 01:40:20;;;;;;;13.13;4.90;;;;;;;-0.58;84.10;98397.91;5110566;28;20028;-77
2021/12/20 01:42:47;;;;;;;12.32;5.35;;;;;;;-0.57;83.89;98395.00;5111210;28;20030;-77
2021/12/20 01:45:16;;;;;;;14.65;5.30;;;;;;;-0.54;83.56;98388.34;5110954;28;20031;-77
2021/12/20 01:47:48;;;;;;;14.93;5.43;;;;;;;-0.53;83.79;98389.97;5110708;28;20080;-78
2021/12/20 01:50:25;;;;;;;18.00;5.82;;;;;;;-0.47;83.98;98394.47;5092163;28;20030;-77
2021/12/20 01:52:50;;;;;;;12.73;4.57;;;;;;;-0.46;83.77;98399.66;5110473;28;20034;-77
2021/12/20 01:55:22;;;;;;;12.27;4.20;;;;;;;-0.45;83.67;98387.00;5110563;28;20024;-77
2021/12/20 01:57:49;;;;;;;11.45;4.30;;;;;;;-0.46;83.42;98379.94;5106219;28;20027;-77
2021/12/20 02:00:27;;;;;;;9.32;4.15;;;;;;;-0.46;83.76;98380.78;5108768;28;20477;-75
2021/12/20 02:02:56;;;;;;;8.85;3.78;;;;;;;-0.44;83.89;98385.94;5088359;28;20131;-75
2021/12/20 02:05:27;;;;;;;13.82;5.15;;;;;;;-0.47;83.85;98387.22;5109321;28;20022;-75
2021/12/20 02:08:03;;;;;;;13.20;4.90;;;;;;;-0.48;83.79;98379.34;5106972;28;20027;-77
2021/12/20 02:10:33;;;;;;;17.27;5.43;;;;;;;-0.45;83.78;98384.28;5110254;28;20039;-76
2021/12/20 02:13:01;;;;;;;12.55;4.90;;;;;;;-0.40;83.74;98375.53;5113138;28;20020;-76
2021/12/20 02:15:26;;;;;;;34.45;9.02;;;;;;;-0.36;83.99;98384.81;5112949;27;20055;-76
2021/12/20 02:17:52;;;;;;;23.55;6.45;;;;;;;-0.38;83.79;98382.34;5109086;28;20058;-75
2021/12/20 02:20:29;;;;;;;16.50;5.00;;;;;;;-0.38;83.92;98382.34;5093813;28;20665;-75
2021/12/20 02:22:56;;;;;;;16.88;5.03;;;;;;;-0.37;83.86;98385.84;5110446;28;20034;-75
2021/12/20 02:25:23;;;;;;;15.43;4.32;;;;;;;-0.36;84.18;98376.72;5093923;28;20379;-76
2021/12/20 02:27:48;;;;;;;14.82;4.72;;;;;;;-0.36;83.81;98380.25;5111817;28;20019;-76
2021/12/20 02:30:37;;;;;;;16.27;5.18;;;;;;;-0.37;83.81;98380.47;5112388;28;20398;-76
2021/12/20 02:38:32;;;;;;;8.75;4.10;;;;;;;-0.36;84.07;98390.19;5111711;28;20161;-79
2021/12/20 02:40:59;;;;;;;12.30;4.55;;;;;;;-0.36;84.24;98384.81;5111801;28;20016;-80
2021/12/20 02:43:24;;;;;;;13.05;4.38;;;;;;;-0.35;83.70;98387.28;5093564;28;20032;-79
2021/12/20 02:45:54;;;;;;;10.30;3.92;;;;;;;-0.35;83.94;98391.84;5112244;28;20034;-80
2021/12/20 02:48:19;;;;;;;10.18;3.90;;;;;;;-0.37;83.93;98381.28;5111792;28;20016;-80
2021/12/20 02:50:45;;;;;;;9.60;4.40;;;;;;;-0.37;83.79;98385.84;5111929;28;20034;-80
2021/12/20 02:53:10;;;;;;;10.27;4.05;;;;;;;-0.35;83.78;98386.44;5112113;28;20140;-80
2021/12/20 02:55:35;;;;;;;8.85;4.88;;;;;;;-0.38;83.93;98395.81;5112179;28;20030;-80
2021/12/20 02:58:01;;;;;;;9.52;4.10;;;;;;;-0.36;84.03;98395.59;5111460;28;20472;-80
2021/12/20 03:00:26;;;;;;;10.07;4.30;;;;;;;-0.33;83.57;98398.66;5111536;28;20043;-79
2021/12/20 03:02:52;;;;;;;9.90;3.67;;;;;;;-0.33;83.83;98406.75;5093031;28;20043;-80
2021/12/20 03:05:17;;;;;;;9.63;4.40;;;;;;;-0.32;83.35;98399.47;5111645;28;20034;-80
2021/12/20 03:07:48;;;;;;;9.77;4.03;;;;;;;-0.33;83.58;98395.13;5111702;28;20102;-81
2021/12/20 03:10:15;;;;;;;16.35;5.82;;;;;;;-0.34;83.72;98393.47;5109454;28;20555;-80
2021/12/20 03:12:40;;;;;;;19.05;6.72;;;;;;;-0.35;83.47;98398.06;5111780;28;20051;-81
2021/12/20 03:15:21;;;;;;;13.88;5.60;;;;;;;-0.34;83.28;98398.88;5111842;28;20120;-80
2021/12/20 03:17:47;;;;;;;12.40;3.60;;;;;;;-0.35;83.49;98394.53;5111810;28;20030;-80
2021/12/20 03:20:16;;;;;;;6.13;3.17;;;;;;;-0.34;83.46;98393.47;5111436;28;20020;-80
2021/12/20 03:22:42;;;;;;;8.93;3.42;;;;;;;-0.32;83.11;98396.78;5111761;28;20053;-81
2021/12/20 03:25:08;;;;;;;10.02;3.35;;;;;;;-0.31;82.94;98401.13;5111640;28;20382;-81
2021/12/20 03:27:34;;;;;;;6.65;3.35;;;;;;;-0.30;82.96;98413.53;5111409;28;20024;-81
2021/12/20 03:30:00;;;;;;;7.32;2.97;;;;;;;-0.28;82.95;98411.44;5110745;28;20066;-81
2021/12/20 03:32:25;;;;;;;11.27;3.97;;;;;;;-0.24;82.78;98401.06;5111343;28;20027;-81
2021/12/20 03:34:51;;;;;;;11.68;4.13;;;;;;;-0.22;82.67;98409.72;5111434;28;20376;-81
2021/12/20 03:37:17;;;;;;;11.75;4.85;;;;;;;-0.21;82.72;98406.00;5110968;28;20455;-80
2021/12/20 03:39:42;;;;;;;15.13;5.88;;;;;;;-0.22;82.81;98407.03;5110674;28;20008;-81
2021/12/20 03:42:08;;;;;;;14.40;6.47;;;;;;;-0.21;82.29;98406.81;5110980;28;20051;-81
2021/12/20 03:44:37;;;;;;;16.25;6.45;;;;;;;-0.23;82.06;98410.78;5092579;28;20595;-80
2021/12/20 03:47:03;;;;;;;18.57;7.57;;;;;;;-0.23;82.22;98406.19;5092189;28;20027;-81
2021/12/20 03:49:28;;;;;;;22.90;7.78;;;;;;;-0.22;82.04;98399.75;5110439;28;20043;-80
2021/12/20 03:51:54;;;;;;;34.00;11.57;;;;;;;-0.20;82.76;98402.22;5092664;28;20539;-81
2021/12/20 03:54:19;;;;;;;23.92;7.82;;;;;;;-0.17;82.46;98410.69;5110579;28;20043;-81
2021/12/20 03:56:46;;;;;;;28.23;7.63;;;;;;;-0.16;81.87;98415.03;5110485;28;20050;-80
2021/12/20 03:59:12;;;;;;;18.95;6.28;;;;;;;-0.17;82.44;98416.09;5109975;27;20107;-80
2021/12/20 04:01:38;;;;;;;28.73;8.68;;;;;;;-0.16;81.89;98406.09;5109972;28;20173;-82
2021/12/20 04:04:04;;;;;;;30.90;9.93;;;;;;;-0.16;81.80;98406.09;5110418;28;20052;-81
2021/12/20 04:06:31;;;;;;;27.63;9.63;;;;;;;-0.18;81.78;98408.19;5110048;28;20035;-80
2021/12/20 04:08:56;;;;;;;18.90;5.45;;;;;;;-0.18;82.19;98413.59;5091739;28;20030;-81
2021/12/20 04:11:22;;;;;;;17.70;6.53;;;;;;;-0.17;81.79;98409.84;5110082;28;20019;-81
2021/12/20 04:13:47;;;;;;;22.58;6.57;;;;;;;-0.15;82.22;98399.66;5110295;28;20501;-81
2021/12/20 04:16:13;;;;;;;13.27;5.10;;;;;;;-0.12;81.73;98403.78;5110746;28;20028;-80
2021/12/20 04:18:38;;;;;;;15.50;4.53;;;;;;;-0.10;81.67;98401.69;5111179;28;20036;-80
2021/12/20 04:21:04;;;;;;;6.03;3.15;;;;;;;-0.09;81.61;98411.44;5110666;28;20034;-80
2021/12/20 04:23:29;;;;;;;17.25;5.68;;;;;;;-0.09;81.69;98414.94;5111262;28;20074;-81
2021/12/20 04:25:55;;;;;;;17.23;6.30;;;;;;;-0.09;81.43;98409.53;5111733;28;20031;-80
2021/12/20 04:28:20;;;;;;;9.82;3.33;;;;;;;-0.13;81.63;98410.22;5111125;28;20490;-80
2021/12/20 04:30:46;;;;;;;10.27;4.18;;;;;;;-0.18;81.26;98410.91;5110758;28;20046;-81
2021/12/20 04:33:11;;;;;;;12.55;5.30;;;;;;;-0.22;81.36;98418.63;5110801;28;20114;-81
2021/12/20 04:35:37;;;;;;;10.57;4.18;;;;;;;-0.26;81.26;98409.34;5111274;28;20047;-80
2021/12/20 04:38:03;;;;;;;8.13;3.80;;;;;;;-0.26;81.69;98411.22;5111196;28;20031;-81
2021/12/20 04:40:29;;;;;;;7.85;4.25;;;;;;;-0.25;81.70;98413.69;5110453;28;20015;-80
2021/12/20 04:42:57;;;;;;;38.10;11.18;;;;;;;-0.24;81.86;98419.91;5110769;28;20034;-81
2021/12/20 04:45:25;;;;;;;32.65;8.75;;;;;;;-0.26;81.59;98420.13;5092201;28;20046;-80
2021/12/20 04:47:51;;;;;;;31.98;8.00;;;;;;;-0.25;81.82;98418.28;5110858;28;20032;-81
2021/12/20 04:50:17;;;;;;;19.85;8.10;;;;;;;-0.26;81.69;98422.81;5110507;28;20028;-81
2021/12/20 04:52:43;;;;;;;25.48;9.20;;;;;;;-0.27;81.63;98425.75;5111378;28;20076;-81
2021/12/20 04:55:10;;;;;;;16.10;6.55;;;;;;;-0.29;81.74;98425.16;5110942;28;20753;-81
2021/12/20 04:57:36;;;;;;;23.33;10.20;;;;;;;-0.34;81.87;98432.06;5110411;28;20058;-81
2021/12/20 05:00:05;;;;;;;17.88;8.02;;;;;;;-0.39;81.96;98442.69;5110308;28;20624;-81
2021/12/20 05:02:30;;;;;;;24.33;8.35;;;;;;;-0.39;82.06;98437.28;5110495;28;20050;-80
2021/12/20 05:04:56;;;;;;;20.58;7.57;;;;;;;-0.35;82.25;98441.19;5110707;28;20032;-81
2021/12/20 05:07:23;;;;;;;27.45;10.35;;;;;;;-0.38;82.08;98425.47;5111031;28;20057;-81
2021/12/20 05:09:49;;;;;;;29.45;9.65;;;;;;;-0.40;82.19;98432.94;5110675;28;20026;-81
2021/12/20 05:12:14;;;;;;;23.02;7.97;;;;;;;-0.41;82.44;98446.66;5110825;28;20024;-81
2021/12/20 05:14:44;;;;;;;10.02;4.20;;;;;;;-0.39;82.06;98448.06;5111136;28;20028;-81
2021/12/20 05:17:12;;;;;;;24.40;8.32;;;;;;;-0.35;82.45;98454.66;5110664;28;20027;-81
2021/12/20 05:19:39;;;;;;;26.02;9.50;;;;;;;-0.33;82.23;98444.47;5110529;28;20065;-81
2021/12/20 05:22:05;;;;;;;32.25;10.82;;;;;;;-0.29;82.32;98439.44;5110853;28;20024;-81
2021/12/20 05:24:30;;;;;;;20.83;7.60;;;;;;;-0.27;82.44;98453.53;5092867;28;20020;-81
2021/12/20 05:26:56;;;;;;;11.73;6.63;;;;;;;-0.26;82.22;98443.59;5092368;28;20031;-81
2021/12/20 05:29:23;;;;;;;17.75;6.38;;;;;;;-0.29;82.02;98450.22;5110517;28;20020;-80
2021/12/20 05:31:49;;;;;;;26.20;8.20;;;;;;;-0.32;82.22;98450.69;5109995;28;20028;-81
2021/12/20 05:34:15;;;;;;;51.28;15.20;;;;;;;-0.32;81.92;98451.50;5109986;28;20403;-81
2021/12/20 05:36:40;;;;;;;14.07;5.93;;;;;;;-0.29;82.32;98447.53;5091616;28;20020;-82
2021/12/20 05:39:06;;;;;;;8.82;5.80;;;;;;;-0.29;82.49;98454.81;5092683;28;20059;-81
2021/12/20 05:41:31;;;;;;;16.63;6.30;;;;;;;-0.32;82.07;98458.75;5110048;28;20498;-81
2021/12/20 05:43:56;;;;;;;27.60;9.73;;;;;;;-0.33;82.09;98452.56;5110366;28;20035;-82
2021/12/20 05:46:22;;;;;;;31.73;10.65;;;;;;;-0.32;82.14;98470.38;5113318;28;20023;-81
2021/12/20 05:48:47;;;;;;;48.42;14.48;;;;;;;-0.32;82.32;98475.78;5095878;28;20047;-81
2021/12/20 05:51:13;;;;;;;30.67;9.40;;;;;;;-0.29;82.04;98477.19;5113737;28;20024;-82
2021/12/20 05:53:38;;;;;;;9.48;4.53;;;;;;;-0.25;82.36;98473.00;5114532;28;20040;-82
2021/12/20 05:56:04;;;;;;;9.55;4.97;;;;;;;-0.23;82.35;98457.41;5114386;28;20035;-82
2021/12/20 05:58:29;;;;;;;7.97;4.68;;;;;;;-0.27;82.24;98460.81;5114108;28;20076;-82
2021/12/20 06:00:55;;;;;;;20.65;7.70;;;;;;;-0.31;82.07;98468.50;5114080;28;20023;-82
2021/12/20 06:03:20;;;;;;;15.93;6.90;;;;;;;-0.31;82.21;98466.63;5114192;28;20039;-82
2021/12/20 06:05:46;;;;;;;8.57;4.70;;;;;;;-0.29;82.22;98476.38;5114449;28;20536;-81
2021/12/20 06:08:11;;;;;;;9.98;5.05;;;;;;;-0.32;82.22;98478.47;5114021;28;20027;-82
2021/12/20 06:10:37;;;;;;;9.63;5.20;;;;;;;-0.35;82.36;98473.53;5114051;28;20027;-82
2021/12/20 06:13:04;;;;;;;9.75;4.95;;;;;;;-0.37;82.65;98477.47;5114109;28;20088;-83
2021/12/20 06:15:30;;;;;;;13.30;6.15;;;;;;;-0.39;82.54;98485.78;5114555;28;20066;-83
2021/12/20 06:17:56;;;;;;;12.57;6.35;;;;;;;-0.38;82.50;98489.31;5114336;28;20512;-82
2021/12/20 06:20:21;;;;;;;26.10;8.68;;;;;;;-0.36;82.44;98496.13;5114490;28;20027;-83
2021/12/20 06:22:47;;;;;;;25.73;9.13;;;;;;;-0.34;82.78;98493.19;5114414;28;20418;-83
2021/12/20 06:25:12;;;;;;;19.80;8.60;;;;;;;-0.34;82.45;98491.34;5114683;28;20110;-83
2021/12/20 06:27:39;;;;;;;17.05;7.53;;;;;;;-0.33;82.57;98498.38;5095488;28;20027;-83
2021/12/20 06:30:08;;;;;;;22.75;7.80;;;;;;;-0.35;82.48;98489.69;5113832;28;20062;-83
2021/12/20 06:32:35;;;;;;;19.30;6.85;;;;;;;-0.34;82.75;98504.81;5114143;28;20467;-83
2021/12/20 06:35:00;;;;;;;15.25;6.13;;;;;;;-0.32;82.59;98510.81;5113654;28;20110;-83
2021/12/20 06:37:26;;;;;;;23.08;7.07;;;;;;;-0.35;82.63;98510.41;5096204;28;20024;-83
2021/12/20 06:39:51;;;;;;;33.33;10.15;;;;;;;-0.42;82.45;98513.19;5095887;28;20452;-83
2021/12/20 06:42:17;;;;;;;44.47;12.10;;;;;;;-0.43;82.84;98505.34;5113803;28;20031;-82
2021/12/20 06:44:42;;;;;;;33.58;11.25;;;;;;;-0.43;82.49;98502.66;5113978;28;20020;-83
2021/12/20 06:47:08;;;;;;;31.08;9.38;;;;;;;-0.37;83.26;98507.13;5095161;28;20491;-83
2021/12/20 06:49:33;;;;;;;33.08;10.98;;;;;;;-0.37;82.58;98513.34;5114148;28;20019;-83
2021/12/20 06:52:00;;;;;;;15.32;6.85;;;;;;;-0.39;82.37;98520.81;5114456;28;20091;-82
2021/12/20 06:54:26;;;;;;;22.33;8.10;;;;;;;-0.36;82.68;98525.78;5113643;28;20479;-82
2021/12/20 06:56:52;;;;;;;16.67;6.97;;;;;;;-0.36;82.66;98523.06;5112280;28;20059;-82
2021/12/20 06:59:17;;;;;;;28.25;9.48;;;;;;;-0.38;82.63;98530.56;5113449;28;20471;-82
2021/12/20 07:01:43;;;;;;;24.67;8.60;;;;;;;-0.41;82.55;98522.13;5112959;28;20102;-82
2021/12/20 07:04:08;;;;;;;35.15;10.50;;;;;;;-0.45;82.07;98529.81;5112814;28;20057;-82
2021/12/20 07:06:34;;;;;;;75.47;18.17;;;;;;;-0.45;82.44;98537.88;5114361;28;20425;-82
2021/12/20 07:09:00;;;;;;;63.08;16.35;;;;;;;-0.44;82.45;98541.41;5113452;28;20036;-83
2021/12/20 07:11:25;;;;;;;23.80;9.05;;;;;;;-0.46;82.24;98536.22;5113961;28;20027;-82
2021/12/20 07:13:54;;;;;;;49.22;14.52;;;;;;;-0.45;82.37;98537.88;5113539;28;20032;-82
2021/12/20 07:16:20;;;;;;;25.27;8.77;;;;;;;-0.42;82.39;98540.13;5113408;28;20475;-83
2021/12/20 07:18:46;;;;;;;40.38;11.60;;;;;;;-0.42;82.30;98537.44;5113100;28;20276;-82
2021/12/20 07:21:11;;;;;;;34.47;11.55;;;;;;;-0.43;82.67;98540.38;5113090;28;20480;-82
2021/12/20 07:23:37;;;;;;;39.72;11.82;;;;;;;-0.41;82.66;98546.38;5094874;28;20108;-82
2021/12/20 07:26:03;;;;;;;21.00;6.40;;;;;;;-0.41;82.61;98532.88;5113324;28;20428;-82
2021/12/20 07:28:29;;;;;;;33.65;10.00;;;;;;;-0.46;82.46;98534.38;5094724;28;20718;-84
2021/12/20 07:30:54;;;;;;;30.02;9.88;;;;;;;-0.47;82.30;98534.59;5112745;28;20094;-83
2021/12/20 07:33:20;;;;;;;14.48;5.60;;;;;;;-0.48;83.08;98532.94;5095250;28;20031;-83
2021/12/20 07:35:46;;;;;;;21.58;8.23;;;;;;;-0.47;82.94;98562.38;5113052;28;20032;-83
2021/12/20 07:38:14;;;;;;;18.63;6.05;;;;;;;-0.49;82.86;98545.59;5094248;28;20073;-83
2021/12/20 07:40:47;;;;;;;11.65;4.47;;;;;;;-0.47;82.46;98551.59;5114366;27;20020;-83
2021/12/20 07:43:15;;;;;;;10.88;4.53;;;;;;;-0.46;82.36;98549.69;5112008;28;20479;-83
2021/12/20 07:45:42;;;;;;;16.48;5.95;;;;;;;-0.45;82.56;98540.56;5110600;28;20027;-82
2021/12/20 07:48:07;;;;;;;15.20;7.22;;;;;;;-0.44;82.88;98555.69;5108031;28;20031;-86
2021/12/20 07:50:33;;;;;;;13.77;5.90;;;;;;;-0.45;82.42;98554.06;5112617;27;20398;-85
2021/12/20 07:52:59;;;;;;;14.25;6.03;;;;;;;-0.43;82.62;98553.84;5112813;28;20027;-84
2021/12/20 07:55:24;;;;;;;15.73;5.82;;;;;;;-0.41;82.59;98552.56;5092514;28;20023;-84
2021/12/20 07:57:51;;;;;;;15.18;6.45;;;;;;;-0.41;82.52;98560.66;5113250;27;20031;-80
2021/12/20 08:00:17;;;;;;;10.60;4.45;;;;;;;-0.44;82.57;98560.28;5106233;27;20529;-86
2021/12/20 08:02:43;;;;;;;19.80;7.00;;;;;;;-0.44;82.41;98560.28;5110803;27;20040;-85
2021/12/20 08:05:10;;;;;;;22.88;7.60;;;;;;;-0.46;82.70;98565.88;5109780;28;20035;-83
2021/12/20 08:07:36;;;;;;;9.00;4.45;;;;;;;-0.43;82.78;98570.00;5114321;27;20530;-87
2021/12/20 08:10:03;;;;;;;8.45;4.28;;;;;;;-0.43;82.56;98564.63;5100391;28;20035;-82
2021/12/20 08:12:29;;;;;;;11.15;4.40;;;;;;;-0.44;82.72;98561.09;5109471;28;20020;-82
2021/12/20 08:14:54;;;;;;;12.48;5.40;;;;;;;-0.42;82.83;98568.97;5091278;28;20076;-84
2021/12/20 08:17:20;;;;;;;15.10;6.30;;;;;;;-0.44;82.47;98566.47;5094955;28;20034;-89
2021/12/20 08:19:45;;;;;;;17.75;7.10;;;;;;;-0.45;82.41;98567.53;5110989;27;20016;-88
2021/12/20 08:22:10;;;;;;;12.65;6.40;;;;;;;-0.41;82.66;98566.03;5111255;28;20068;-85
2021/12/20 08:24:36;;;;;;;13.98;5.78;;;;;;;-0.34;82.31;98568.66;5111352;28;20034;-83
2021/12/20 08:27:02;;;;;;;22.00;6.13;;;;;;;-0.31;82.57;98569.06;5110696;28;20027;-85
2021/12/20 08:29:27;;;;;;;11.77;4.80;;;;;;;-0.31;82.17;98579.00;5108485;28;20050;-85
2021/12/20 08:31:53;;;;;;;9.60;4.88;;;;;;;-0.33;82.42;98579.22;5107908;28;20023;-78
2021/12/20 08:34:18;;;;;;;20.17;5.72;;;;;;;-0.29;82.16;98573.41;5106788;28;20059;-87
2021/12/20 08:36:44;;;;;;;19.00;6.80;;;;;;;-0.29;82.10;98573.41;5091694;28;20554;-82
2021/12/20 08:39:15;;;;;;;18.80;5.65;;;;;;;-0.27;82.15;98574.81;5110348;28;20035;-79
2021/12/20 08:41:40;;;;;;;15.45;5.95;;;;;;;-0.22;81.98;98574.16;5111316;27;20479;-85
2021/12/20 08:44:06;;;;;;;15.10;5.32;;;;;;;-0.23;81.86;98591.38;5106900;28;20066;-86
2021/12/20 08:46:31;;;;;;;27.30;7.90;;;;;;;-0.24;81.60;98584.34;5109157;28;20061;-82
2021/12/20 08:48:56;;;;;;;31.38;9.02;;;;;;;-0.24;81.77;98587.84;5089363;28;20396;-73
2021/12/20 08:51:25;;;;;;;27.90;8.55;;;;;;;-0.21;81.67;98584.72;5091756;28;20024;-80
2021/12/20 08:53:51;;;;;;;7.80;3.85;;;;;;;-0.17;81.41;98591.31;5107267;28;20023;-75
2021/12/20 08:56:16;;;;;;;10.27;4.32;;;;;;;-0.15;81.78;98588.38;5107804;28;20132;-71
2021/12/20 08:58:41;;;;;;;10.02;4.57;;;;;;;-0.12;81.77;98593.31;5104922;28;20423;-71
2021/12/20 09:01:07;;;;;;;15.80;7.20;;;;;;;-0.09;81.48;98598.28;5107968;28;20076;-69
2021/12/20 09:03:32;;;;;;;6.22;3.67;;;;;;;-0.07;80.71;98604.25;5089624;28;20505;-69
2021/12/20 09:05:58;;;;;;;10.82;4.65;;;;;;;-0.07;81.34;98581.88;5089980;28;20387;-71
2021/12/20 09:08:23;;;;;;;19.48;6.43;;;;;;;-0.07;81.23;98589.97;5089389;28;20309;-70
2021/12/20 09:10:49;;;;;;;17.58;6.10;;;;;;;-0.07;80.98;98589.97;5106259;28;20047;-70
2021/12/20 09:13:15;;;;;;;14.57;5.55;;;;;;;-0.04;80.99;98586.84;5104383;28;20067;-71
2021/12/20 09:15:42;;;;;;;16.33;6.45;;;;;;;-0.03;81.08;98597.38;5106610;28;20487;-72
2021/12/20 09:18:11;;;;;;;24.13;7.93;;;;;;;-0.01;80.93;98592.59;5106385;28;20576;-72
2021/12/20 09:20:37;;;;;;;9.05;4.57;;;;;;;0.00;80.93;98598.81;5110929;28;20116;-73
2021/12/20 09:23:05;;;;;;;26.33;9.73;;;;;;;0.01;80.88;98591.53;5112523;28;20077;-72
2021/12/20 09:25:33;;;;;;;22.67;8.15;;;;;;;-0.03;80.06;98604.66;5110810;28;20042;-73
2021/12/20 09:28:01;;;;;;;10.02;5.13;;;;;;;-0.05;80.38;98596.78;5107655;28;20027;-70
2021/12/20 09:30:28;;;;;;;15.07;6.18;;;;;;;-0.06;80.49;98599.72;5105724;27;20106;-71
2021/12/20 09:32:54;;;;;;;24.13;8.27;;;;;;;-0.03;80.83;98601.97;5110723;27;20036;-76
2021/12/20 09:35:20;;;;;;;18.75;7.07;;;;;;;-0.02;80.39;98604.41;5109537;27;20042;-72
2021/12/20 09:37:49;;;;;;;21.75;7.40;;;;;;;-0.03;80.47;98602.78;5111426;28;20062;-70
2021/12/20 09:40:15;;;;;;;8.93;3.30;;;;;;;-0.03;80.31;98601.97;5109649;28;20058;-72
2021/12/20 09:42:51;;;;;;;23.35;8.45;;;;;;;-0.04;80.63;98608.41;5095192;28;20024;-71
2021/12/20 09:45:19;;;;;;;9.05;4.00;;;;;;;-0.05;80.82;98612.97;5114524;27;20019;-70
2021/12/20 09:47:44;;;;;;;13.93;5.53;;;;;;;-0.03;80.12;98605.47;5114257;27;20023;-72
2021/12/20 09:50:11;;;;;;;14.60;5.82;;;;;;;-0.04;80.56;98620.00;5112756;28;20117;-71
2021/12/20 09:52:37;;;;;;;22.92;7.82;;;;;;;-0.06;80.20;98619.41;5112587;28;20387;-71
2021/12/20 09:55:03;;;;;;;19.10;6.30;;;;;;;-0.07;80.12;98619.63;5112729;28;20020;-72
2021/12/20 09:57:30;;;;;;;22.30;8.50;;;;;;;-0.06;80.59;98615.88;5111481;28;20034;-71
2021/12/20 09:59:56;;;;;;;24.30;8.27;;;;;;;-0.02;80.16;98623.28;5112988;28;20053;-70
2021/12/20 10:02:22;;;;;;;10.88;4.10;;;;;;;0.01;80.51;98616.63;5111651;28;20499;-69
2021/12/20 10:04:47;;;;;;;11.25;4.18;;;;;;;0.03;80.54;98622.63;5110367;28;20483;-69
2021/12/20 10:07:18;;;;;;;10.65;4.35;;;;;;;0.04;80.04;98618.88;5089135;28;20168;-71
2021/12/20 10:09:46;;;;;;;11.18;5.05;;;;;;;0.04;80.09;98618.06;5112450;27;20027;-72
2021/12/20 10:12:24;;;;;;;14.38;5.50;;;;;;;0.08;79.78;98609.28;5093013;28;20032;-75
2021/12/20 10:14:58;;;;;;;7.65;4.25;;;;;;;0.11;79.79;98611.53;5112056;28;20039;-77
2021/12/20 10:17:26;;;;;;;11.82;5.47;;;;;;;0.12;80.02;98615.06;5111343;28;20027;-77
2021/12/20 10:19:53;;;;;;;8.77;4.18;;;;;;;0.12;79.63;98609.69;5112446;27;20550;-76
2021/12/20 10:22:30;;;;;;;15.38;5.30;;;;;;;0.12;79.66;98623.97;5109200;27;20028;-78
2021/12/20 10:25:00;;;;;;;9.25;4.57;;;;;;;0.13;79.26;98619.41;5092011;28;20032;-77
2021/12/20 10:27:35;;;;;;;12.40;5.18;;;;;;;0.12;79.63;98625.88;5115044;27;20088;-77
2021/12/20 10:30:20;;;;;;;15.82;5.25;;;;;;;0.11;79.10;98618.81;5091437;27;20035;-76
2021/12/20 10:32:45;;;;;;;18.55;6.60;;;;;;;0.13;79.18;98622.13;5110248;27;20059;-78
2021/12/20 10:35:34;;;;;;;20.42;6.90;;;;;;;0.13;78.69;98619.41;5110169;27;20078;-80
2021/12/20 10:38:23;;;;;;;26.83;7.00;;;;;;;0.09;78.57;98634.41;5104806;27;20115;-76
2021/12/20 10:40:52;;;;;;;11.15;4.03;;;;;;;0.07;78.16;98623.81;5111716;27;20122;-80
2021/12/20 10:43:21;;;;;;;10.93;4.43;;;;;;;0.03;78.81;98622.63;5092803;28;20570;-85
2021/12/20 10:45:47;;;;;;;11.80;4.57;;;;;;;0.04;78.74;98620.75;5110595;28;20069;-79
2021/12/20 10:48:12;;;;;;;6.82;3.17;;;;;;;0.07;78.63;98623.81;5111916;28;20023;-77
2021/12/20 10:50:45;;;;;;;10.55;3.97;;;;;;;0.08;79.57;98624.66;5111316;28;20113;-77
2021/12/20 10:53:21;;;;;;;10.40;3.90;;;;;;;0.05;79.30;98627.81;5110665;28;20027;-77
2021/12/20 10:55:56;;;;;;;8.90;4.15;;;;;;;0.05;79.74;98627.81;5104082;28;20020;-75
2021/12/20 10:58:33;;;;;;;11.40;4.70;;;;;;;0.01;79.96;98629.28;5110897;27;20683;-77
2021/12/20 11:04:12;;;;;;;17.67;6.60;;;;;;;-0.09;79.73;98632.50;5065048;28;20079;-73
2021/12/20 11:06:55;;;;;;;15.88;6.55;;;;;;;-0.16;80.38;98632.56;5108286;27;20475;-77
2021/12/20 11:09:22;;;;;;;15.38;7.97;;;;;;;-0.23;80.58;98632.63;5108009;27;20023;-75
2021/12/20 11:11:53;;;;;;;27.75;12.50;;;;;;;-0.28;80.78;98631.66;5101183;28;20024;-76
2021/12/20 11:14:23;;;;;;;44.72;21.65;;;;;;;-0.28;81.15;98640.53;5106909;28;20026;-72
2021/12/20 11:16:51;;;;;;;20.07;8.40;;;;;;;-0.27;81.20;98636.81;5109894;28;20026;-81
2021/12/20 11:19:27;;;;;;;27.90;11.30;;;;;;;-0.28;81.30;98645.94;5111108;27;20026;-77
2021/12/20 11:21:59;;;;;;;22.58;10.52;;;;;;;-0.28;81.07;98640.53;5106563;28;20092;-79
2021/12/20 11:24:49;;;;;;;13.45;6.85;;;;;;;-0.29;81.48;98648.88;5109940;28;20042;-78
2021/12/20 11:27:29;;;;;;;11.00;5.53;;;;;;;-0.36;81.60;98648.91;5082476;27;20044;-82
2021/12/20 11:29:55;;;;;;;27.00;13.57;;;;;;;-0.34;82.25;98649.50;5093055;28;20122;-79
2021/12/20 11:32:24;;;;;;;19.27;10.88;;;;;;;-0.36;81.85;98641.66;5108376;27;20053;-74
2021/12/20 11:34:49;;;;;;;13.27;7.78;;;;;;;-0.35;82.28;98635.22;5107082;27;20054;-75
2021/12/20 11:37:18;;;;;;;10.30;8.05;;;;;;;-0.34;82.82;98653.03;5108771;28;20031;-79